Terminal Aerodrome Forecast
Issued by NWS

Home | Current Version | Previous Version | Text Only | Print | Product List | Glossary On
Versions: 1 2 3 4 5 6 7 8 9 10 11 12 13 14 15 16 17 18
000
FTUS45 KTFX 231503 AAA
TAFBZN
TAF AMD
KBZN 231503Z 2315/2412 26005KT P6SM SCT040 BKN080
      TEMPO 2317/2320 4SM -SHSN BKN040
     FM240600 23005KT 6SM BR VCSH OVC010=

USA.gov is the U.S. government's official web portal to all federal, state and local government web resources and services.